createdAt,value
2023-05-10T00:01:39.100Z,0.90
2023-05-10T00:04:06.241Z,1.00
2023-05-10T00:06:33.490Z,0.80
2023-05-10T00:09:00.785Z,0.95
2023-05-10T00:11:27.983Z,0.80
2023-05-10T00:13:55.313Z,1.00
2023-05-10T00:16:22.514Z,1.17
2023-05-10T00:18:49.710Z,0.65
2023-05-10T00:21:16.871Z,1.05
2023-05-10T00:23:44.038Z,0.90
2023-05-10T00:26:11.170Z,0.88
2023-05-10T00:28:38.242Z,1.20
2023-05-10T00:31:05.522Z,0.85
2023-05-10T00:33:32.658Z,1.00
2023-05-10T00:35:59.823Z,0.90
2023-05-10T00:38:27.211Z,0.80
2023-05-10T00:40:54.312Z,0.90
2023-05-10T00:43:21.564Z,1.08
2023-05-10T00:45:48.776Z,0.90
2023-05-10T00:48:16.065Z,0.90
2023-05-10T00:50:43.243Z,0.80
2023-05-10T00:53:11.234Z,0.82
2023-05-10T00:55:38.639Z,0.70
2023-05-10T00:58:06.649Z,0.80
2023-05-10T01:00:34.292Z,0.77
2023-05-10T01:03:02.272Z,0.85
2023-05-10T01:05:29.507Z,0.80
2023-05-10T01:07:57.740Z,0.90
2023-05-10T01:10:24.920Z,0.80
2023-05-10T01:12:52.285Z,1.00
2023-05-10T01:15:19.821Z,0.90
2023-05-10T01:17:47.691Z,1.00
2023-05-10T01:20:15.793Z,1.00
2023-05-10T01:23:03.404Z,1.08
2023-05-10T01:25:35.144Z,0.93
2023-05-10T01:28:08.324Z,0.82
2023-05-10T01:30:55.793Z,1.27
2023-05-10T01:33:32.038Z,0.77
2023-05-10T01:35:59.133Z,1.10
2023-05-10T01:38:29.290Z,0.82
2023-05-10T01:41:17.035Z,0.98
2023-05-10T01:43:54.516Z,0.95
2023-05-10T01:46:35.184Z,0.93
2023-05-10T01:49:03.471Z,1.00
2023-05-10T01:51:35.761Z,0.80
2023-05-10T01:54:04.138Z,0.80
2023-05-10T01:56:32.542Z,0.93
2023-05-10T01:59:00.610Z,1.00
2023-05-10T02:01:28.839Z,1.00
2023-05-10T02:03:56.951Z,1.20
2023-05-10T02:06:25.887Z,0.95
2023-05-10T02:08:53.880Z,0.90
2023-05-10T02:11:21.945Z,1.00
2023-05-10T02:13:49.909Z,0.98
2023-05-10T02:16:19.902Z,0.70
2023-05-10T02:18:47.711Z,1.00
2023-05-10T02:21:16.062Z,1.00
2023-05-10T02:23:44.200Z,0.90
2023-05-10T02:26:12.893Z,0.98
2023-05-10T02:28:40.931Z,0.75
2023-05-10T02:31:10.218Z,1.00
2023-05-10T02:33:38.274Z,0.90
2023-05-10T02:36:06.399Z,0.93
2023-05-10T02:38:34.303Z,1.10
2023-05-10T02:41:01.714Z,0.90
2023-05-10T02:43:31.629Z,0.95
2023-05-10T02:45:58.884Z,0.93
2023-05-10T02:48:26.490Z,1.15
2023-05-10T02:50:54.557Z,0.80
2023-05-10T02:53:24.093Z,1.00
2023-05-10T02:55:53.614Z,0.63
2023-05-10T02:58:21.829Z,1.13
2023-05-10T03:00:48.984Z,0.82
2023-05-10T03:03:16.202Z,1.00
2023-05-10T03:05:43.308Z,0.93
2023-05-10T03:08:10.881Z,0.90
2023-05-10T03:10:43.011Z,0.93
2023-05-10T03:13:16.149Z,1.05
2023-05-10T03:16:10.089Z,0.93
2023-05-10T03:18:49.757Z,0.85
2023-05-10T03:21:19.505Z,0.95
2023-05-10T03:23:54.739Z,1.10
2023-05-10T03:26:28.446Z,0.90
2023-05-10T03:28:56.221Z,1.00
2023-05-10T03:31:23.489Z,1.27
2023-05-10T03:33:51.410Z,1.30
2023-05-10T03:36:18.737Z,1.20
2023-05-10T03:38:45.915Z,1.20
2023-05-10T03:41:13.188Z,0.95
2023-05-10T03:43:40.802Z,1.67
2023-05-10T03:46:07.925Z,1.30
2023-05-10T03:48:35.061Z,1.70
2023-05-10T03:51:02.285Z,1.48
2023-05-10T03:53:29.353Z,1.50
2023-05-10T03:55:56.724Z,1.40
2023-05-10T03:58:24.035Z,1.63
2023-05-10T04:00:51.258Z,1.50
2023-05-10T04:03:18.743Z,1.25
2023-05-10T04:05:45.893Z,1.48
2023-05-10T04:08:13.077Z,1.30
2023-05-10T04:10:40.775Z,1.60
2023-05-10T04:13:07.910Z,2.03
2023-05-10T04:15:35.100Z,1.40
2023-05-10T04:18:02.343Z,1.63
2023-05-10T04:20:29.424Z,1.80
2023-05-10T04:22:56.556Z,1.90
2023-05-10T04:25:23.717Z,1.50
2023-05-10T04:27:50.843Z,2.05
2023-05-10T04:30:18.196Z,1.50
2023-05-10T04:32:46.771Z,1.55
2023-05-10T04:35:15.836Z,1.58
2023-05-10T04:37:43.002Z,1.75
2023-05-10T04:40:10.408Z,1.63
2023-05-10T04:42:37.553Z,1.83
2023-05-10T04:45:04.795Z,1.40
2023-05-10T04:47:31.941Z,1.80
2023-05-10T04:49:59.400Z,1.60
2023-05-10T04:52:26.982Z,1.65
2023-05-10T04:54:54.138Z,1.55
2023-05-10T04:57:21.271Z,1.63
2023-05-10T04:59:50.235Z,1.65
2023-05-10T05:02:17.597Z,1.65
2023-05-10T05:04:44.719Z,1.83
2023-05-10T05:07:11.812Z,1.98
2023-05-10T05:09:38.915Z,1.63
2023-05-10T05:12:06.396Z,1.60
2023-05-10T05:14:33.519Z,1.90
2023-05-10T05:17:00.785Z,2.08
2023-05-10T05:19:28.366Z,1.35
2023-05-10T05:21:55.668Z,1.70
2023-05-10T05:24:22.799Z,1.60
2023-05-10T05:26:49.927Z,1.60
2023-05-10T05:29:17.049Z,1.38
2023-05-10T05:31:44.367Z,1.27
2023-05-10T05:34:11.477Z,1.52
2023-05-10T05:36:41.871Z,1.58
2023-05-10T05:39:09.020Z,1.80
2023-05-10T05:41:36.328Z,1.88
2023-05-10T05:44:03.441Z,1.70
2023-05-10T05:46:30.643Z,1.55
2023-05-10T05:48:58.054Z,1.40
2023-05-10T05:51:25.262Z,1.80
2023-05-10T05:53:52.522Z,1.60
2023-05-10T05:56:25.097Z,1.67
2023-05-10T05:58:52.598Z,1.65
2023-05-10T06:01:19.743Z,1.38
2023-05-10T06:03:46.980Z,1.70
2023-05-10T06:06:15.365Z,1.80
2023-05-10T06:08:42.466Z,1.85
2023-05-10T06:11:09.552Z,1.85
2023-05-10T06:13:36.749Z,1.80
2023-05-10T06:16:04.345Z,1.52
2023-05-10T06:18:31.476Z,1.58
2023-05-10T06:20:58.897Z,1.77
2023-05-10T06:23:26.464Z,2.00
2023-05-10T06:25:53.787Z,1.80
2023-05-10T06:28:21.092Z,1.60
2023-05-10T06:30:48.819Z,1.80
2023-05-10T06:33:17.007Z,1.55
2023-05-10T06:35:44.261Z,1.70
2023-05-10T06:38:11.674Z,1.70
2023-05-10T06:40:38.844Z,1.60
2023-05-10T06:43:06.614Z,1.65
2023-05-10T06:45:33.734Z,1.60
2023-05-10T06:48:00.932Z,1.60
2023-05-10T06:50:28.182Z,1.55
2023-05-10T06:52:56.433Z,1.63
2023-05-10T06:55:23.737Z,1.83
2023-05-10T06:57:51.576Z,1.50
2023-05-10T07:00:20.012Z,1.50
2023-05-10T07:05:17.603Z,1.52
2023-05-10T07:07:44.936Z,1.70
2023-05-10T07:10:12.090Z,1.58
2023-05-10T07:12:39.580Z,1.58
2023-05-10T07:15:07.431Z,1.60
2023-05-10T07:17:34.694Z,1.40
2023-05-10T07:20:02.472Z,1.60
2023-05-10T07:22:29.617Z,1.40
2023-05-10T07:24:56.747Z,1.70
2023-05-10T07:27:23.934Z,1.45
2023-05-10T07:29:51.515Z,1.42
2023-05-10T07:32:18.641Z,1.48
2023-05-10T07:34:45.758Z,1.40
2023-05-10T07:37:13.086Z,1.30
2023-05-10T07:39:40.333Z,1.55
2023-05-10T07:42:07.430Z,1.40
2023-05-10T07:44:34.553Z,1.63
2023-05-10T07:47:01.707Z,1.35
2023-05-10T07:49:28.841Z,1.40
2023-05-10T07:51:56.069Z,1.48
2023-05-10T07:54:23.422Z,1.33
2023-05-10T07:56:50.596Z,1.58
2023-05-10T07:59:18.612Z,1.50
2023-05-10T08:01:46.254Z,1.40
2023-05-10T08:04:13.530Z,1.85
2023-05-10T08:06:41.647Z,1.20
2023-05-10T08:09:09.068Z,1.17
2023-05-10T08:11:36.493Z,1.40
2023-05-10T08:14:03.656Z,1.30
2023-05-10T08:16:30.941Z,1.27
2023-05-10T08:18:58.183Z,1.48
2023-05-10T08:21:25.534Z,1.23
2023-05-10T08:23:52.741Z,1.02
2023-05-10T08:26:19.864Z,1.20
2023-05-10T08:28:46.986Z,1.05
2023-05-10T08:31:14.160Z,1.38
2023-05-10T08:33:42.436Z,1.33
2023-05-10T08:36:11.548Z,1.10
2023-05-10T08:38:40.896Z,1.13
2023-05-10T08:41:08.121Z,1.10
2023-05-10T08:43:37.545Z,1.30
2023-05-10T08:46:06.956Z,1.30
2023-05-10T08:48:35.068Z,1.42
2023-05-10T08:51:03.001Z,1.13
2023-05-10T08:53:31.099Z,1.20
2023-05-10T08:55:58.774Z,1.45
2023-05-10T08:58:26.101Z,1.15
2023-05-10T09:00:53.455Z,1.00
2023-05-10T09:03:20.667Z,1.27
2023-05-10T09:05:48.071Z,1.15
2023-05-10T09:08:17.343Z,1.13
2023-05-10T09:10:48.601Z,1.17
2023-05-10T09:13:16.612Z,0.95
2023-05-10T09:15:45.411Z,1.20
2023-05-10T09:18:12.810Z,1.00
2023-05-10T09:20:39.932Z,1.20
2023-05-10T09:23:07.058Z,1.08
2023-05-10T09:25:34.672Z,1.20
2023-05-10T09:28:01.829Z,1.02
2023-05-10T09:30:29.648Z,1.35
2023-05-10T09:32:57.406Z,1.20
2023-05-10T09:35:28.843Z,1.17
2023-05-10T09:37:57.743Z,1.15
2023-05-10T09:40:25.654Z,1.25
2023-05-10T09:42:56.868Z,1.17
2023-05-10T09:45:25.681Z,1.15
2023-05-10T09:50:21.424Z,1.13
2023-05-10T09:52:49.572Z,1.17
2023-05-10T09:55:17.609Z,1.00
2023-05-10T09:57:44.932Z,1.30
2023-05-10T10:00:13.432Z,1.17
2023-05-10T10:02:41.411Z,1.13
2023-05-10T10:05:08.821Z,1.10
2023-05-10T10:07:36.803Z,1.08
2023-05-10T10:10:05.718Z,1.08
2023-05-10T10:12:32.881Z,1.08
2023-05-10T10:15:02.281Z,1.23
2023-05-10T10:17:30.458Z,1.13
2023-05-10T10:19:59.181Z,1.30
2023-05-10T10:22:26.336Z,1.00
2023-05-10T10:24:53.597Z,0.98
2023-05-10T10:27:20.881Z,0.88
2023-05-10T10:29:54.418Z,0.90
2023-05-10T10:32:47.231Z,0.90
2023-05-10T10:35:14.837Z,1.00
2023-05-10T10:37:49.694Z,1.35
2023-05-10T10:40:34.823Z,1.20
2023-05-10T10:43:20.862Z,0.90
2023-05-10T10:46:07.990Z,0.95
2023-05-10T10:48:35.084Z,1.20
2023-05-10T10:51:02.414Z,0.82
2023-05-10T10:53:29.923Z,0.80
2023-05-10T10:56:07.960Z,1.02
2023-05-10T10:58:36.061Z,0.90
2023-05-10T11:01:16.440Z,1.02
2023-05-10T11:04:00.322Z,0.98
2023-05-10T11:06:45.622Z,1.05
2023-05-10T11:09:13.560Z,0.80
2023-05-10T11:11:51.037Z,1.17
2023-05-10T11:14:21.473Z,0.93
2023-05-10T11:16:48.693Z,0.80
2023-05-10T11:19:17.512Z,0.90
2023-05-10T11:24:15.850Z,0.80
2023-05-10T11:26:43.772Z,1.00
2023-05-10T11:29:11.009Z,1.02
2023-05-10T11:31:44.774Z,0.75
2023-05-10T11:34:12.040Z,0.85
2023-05-10T11:36:39.374Z,0.80
2023-05-10T11:39:07.240Z,0.80
2023-05-10T11:41:34.645Z,0.80
2023-05-10T11:44:01.843Z,1.13
2023-05-10T11:46:29.760Z,0.93
2023-05-10T11:49:02.691Z,1.05
2023-05-10T11:51:30.221Z,1.02
2023-05-10T11:53:58.272Z,1.00
2023-05-10T11:56:27.329Z,0.80
2023-05-10T11:58:56.661Z,0.80
2023-05-10T12:01:24.500Z,0.77
2023-05-10T12:03:52.736Z,1.00
2023-05-10T12:06:20.670Z,1.00
2023-05-10T12:08:48.699Z,0.90
2023-05-10T12:11:16.558Z,1.00
2023-05-10T12:13:44.204Z,0.90
2023-05-10T12:16:15.511Z,0.80
2023-05-10T12:18:43.736Z,0.82
2023-05-10T12:21:12.610Z,0.95
2023-05-10T12:26:07.224Z,0.77
2023-05-10T12:28:35.072Z,0.90
2023-05-10T12:31:03.498Z,0.95
2023-05-10T12:33:40.596Z,0.80
2023-05-10T12:36:07.827Z,0.70
2023-05-10T12:38:34.979Z,0.90
2023-05-10T12:41:03.314Z,0.80
2023-05-10T12:43:30.744Z,0.90
2023-05-10T12:45:57.988Z,0.80
2023-05-10T12:48:25.420Z,0.90
2023-05-10T12:50:52.555Z,0.82
2023-05-10T12:53:19.658Z,1.00
2023-05-10T12:55:46.937Z,0.70
2023-05-10T12:58:27.483Z,0.82
2023-05-10T13:01:01.581Z,0.80
2023-05-10T13:03:28.682Z,0.88
2023-05-10T13:05:55.923Z,0.88
2023-05-10T13:08:23.051Z,0.90
2023-05-10T13:10:50.351Z,0.90
2023-05-10T13:13:17.605Z,1.00
2023-05-10T13:15:44.691Z,0.70
2023-05-10T13:18:12.024Z,0.80
2023-05-10T13:20:39.319Z,0.70
2023-05-10T13:23:06.515Z,0.90
2023-05-10T13:25:35.264Z,0.70
2023-05-10T13:30:29.957Z,0.65
2023-05-10T13:32:57.158Z,0.90
2023-05-10T13:35:24.556Z,0.88
2023-05-10T13:37:51.687Z,0.80
2023-05-10T13:40:18.973Z,0.70
2023-05-10T13:42:46.380Z,0.93
2023-05-10T13:45:14.718Z,0.80
2023-05-10T13:47:42.080Z,0.63
2023-05-10T13:50:09.459Z,0.80
2023-05-10T13:52:36.727Z,0.80
2023-05-10T13:55:04.117Z,0.70
2023-05-10T13:57:31.455Z,0.82
2023-05-10T13:59:58.642Z,0.80
2023-05-10T14:02:26.789Z,0.80
2023-05-10T14:04:53.927Z,0.77
2023-05-10T14:07:25.673Z,0.73
2023-05-10T14:09:52.820Z,0.68
2023-05-10T14:12:19.937Z,0.70
2023-05-10T14:14:47.071Z,0.80
2023-05-10T14:17:14.181Z,0.70
2023-05-10T14:19:41.318Z,0.70
2023-05-10T14:22:08.461Z,0.68
2023-05-10T14:24:35.721Z,0.93
2023-05-10T14:27:02.878Z,0.95
2023-05-10T14:29:29.970Z,0.70
2023-05-10T14:31:57.144Z,0.75
2023-05-10T14:34:24.288Z,0.70
2023-05-10T14:36:53.978Z,0.85
2023-05-10T14:39:21.094Z,0.70
2023-05-10T14:41:48.395Z,0.60
2023-05-10T14:44:16.516Z,0.75
2023-05-10T14:46:43.622Z,0.80
2023-05-10T14:49:10.785Z,0.80
2023-05-10T14:51:37.962Z,0.82
2023-05-10T14:54:05.133Z,0.93
2023-05-10T14:56:33.643Z,0.85
2023-05-10T14:59:01.135Z,0.70
2023-05-10T15:01:28.916Z,0.60
2023-05-10T15:03:58.871Z,0.73
2023-05-10T15:06:32.692Z,0.63
2023-05-10T15:08:59.839Z,0.80
2023-05-10T15:11:27.125Z,0.70
2023-05-10T15:13:54.329Z,0.73
2023-05-10T15:16:21.580Z,0.75
2023-05-10T15:18:49.265Z,0.70
2023-05-10T15:21:16.575Z,0.70
2023-05-10T15:23:43.712Z,0.73
2023-05-10T15:26:10.797Z,0.68
2023-05-10T15:28:37.910Z,1.05
2023-05-10T15:31:05.072Z,0.77
2023-05-10T15:33:32.189Z,0.82
2023-05-10T15:35:59.270Z,0.63
2023-05-10T15:38:26.773Z,0.65
2023-05-10T15:40:56.674Z,0.85
2023-05-10T15:43:23.792Z,0.50
2023-05-10T15:45:51.366Z,0.90
2023-05-10T15:48:18.502Z,0.52
2023-05-10T15:50:45.924Z,0.60
2023-05-10T15:53:13.061Z,0.65
2023-05-10T15:55:40.587Z,0.73
2023-05-10T15:58:07.707Z,0.60
2023-05-10T16:00:34.893Z,0.60
2023-05-10T16:03:02.273Z,0.65
2023-05-10T16:05:33.675Z,0.80
2023-05-10T16:08:01.790Z,0.50
2023-05-10T16:10:29.088Z,0.60
2023-05-10T16:12:56.292Z,0.70
2023-05-10T16:15:23.643Z,0.80
2023-05-10T16:17:50.951Z,0.70
2023-05-10T16:20:18.491Z,0.70
2023-05-10T16:22:45.650Z,0.75
2023-05-10T16:25:13.635Z,0.70
2023-05-10T16:27:41.089Z,0.70
2023-05-10T16:30:08.648Z,0.50
2023-05-10T16:32:35.878Z,0.60
2023-05-10T16:35:03.390Z,0.55
2023-05-10T16:37:30.556Z,0.88
2023-05-10T16:39:57.809Z,0.50
2023-05-10T16:42:26.063Z,0.50
2023-05-10T16:44:53.260Z,0.50
2023-05-10T16:47:20.530Z,0.60
2023-05-10T16:49:47.700Z,0.60
2023-05-10T16:52:14.800Z,0.65
2023-05-10T16:54:42.360Z,0.77
2023-05-10T16:57:09.679Z,0.63
2023-05-10T16:59:36.791Z,0.60
2023-05-10T17:02:04.245Z,0.60
2023-05-10T17:04:31.605Z,0.57
2023-05-10T17:06:58.845Z,0.60
2023-05-10T17:09:26.012Z,0.70
2023-05-10T17:11:53.307Z,0.50
2023-05-10T17:14:20.569Z,0.73
2023-05-10T17:16:48.364Z,0.70
2023-05-10T17:19:15.747Z,0.50
2023-05-10T17:21:42.866Z,0.70
2023-05-10T17:24:10.005Z,0.50
2023-05-10T17:26:37.510Z,0.70
2023-05-10T17:29:04.661Z,0.70
2023-05-10T17:31:33.017Z,0.70
2023-05-10T17:34:01.028Z,0.57
2023-05-10T17:36:29.308Z,0.50
2023-05-10T17:38:56.439Z,0.50
2023-05-10T17:41:23.736Z,0.70
2023-05-10T17:43:51.109Z,0.77
2023-05-10T17:46:18.336Z,0.63
2023-05-10T17:48:45.647Z,0.80
2023-05-10T17:51:12.806Z,0.50
2023-05-10T17:53:40.940Z,0.73
2023-05-10T17:56:08.224Z,0.60
2023-05-10T17:58:38.186Z,0.80
2023-05-10T18:01:05.900Z,0.65
2023-05-10T18:03:33.914Z,0.57
2023-05-10T18:06:01.167Z,1.17
2023-05-10T18:08:30.465Z,0.93
2023-05-10T18:10:58.014Z,1.48
2023-05-10T18:13:25.734Z,1.10
2023-05-10T18:15:53.242Z,0.93
2023-05-10T18:18:20.397Z,1.00
2023-05-10T18:20:47.852Z,1.17
2023-05-10T18:23:15.352Z,1.10
2023-05-10T18:25:42.618Z,0.98
2023-05-10T18:28:09.891Z,1.10
2023-05-10T18:30:37.001Z,1.23
2023-05-10T18:33:04.199Z,0.95
2023-05-10T18:35:31.545Z,1.17
2023-05-10T18:37:59.172Z,1.10
2023-05-10T18:40:27.100Z,0.80
2023-05-10T18:42:54.238Z,1.40
2023-05-10T18:45:21.480Z,1.02
2023-05-10T18:47:48.689Z,0.95
2023-05-10T18:50:17.244Z,1.02
2023-05-10T18:52:44.429Z,0.90
2023-05-10T18:55:11.957Z,1.08
2023-05-10T18:57:41.674Z,0.90
2023-05-10T19:00:12.758Z,1.15
2023-05-10T19:02:40.669Z,1.17
2023-05-10T19:05:08.227Z,1.00
2023-05-10T19:07:35.397Z,1.00
2023-05-10T19:10:02.813Z,0.88
2023-05-10T19:12:29.986Z,0.98
2023-05-10T19:14:57.081Z,0.90
2023-05-10T19:17:24.688Z,1.10
2023-05-10T19:19:51.853Z,1.00
2023-05-10T19:22:28.314Z,1.00
2023-05-10T19:25:03.845Z,0.90
2023-05-10T19:27:32.802Z,0.90
2023-05-10T19:30:01.537Z,0.70
2023-05-10T19:32:28.988Z,0.73
2023-05-10T19:34:56.831Z,0.82
2023-05-10T19:37:24.083Z,0.90
2023-05-10T19:39:51.729Z,1.00
2023-05-10T19:42:18.824Z,0.90
2023-05-10T19:44:46.146Z,1.00
2023-05-10T19:47:13.412Z,0.80
2023-05-10T19:49:40.846Z,1.08
2023-05-10T19:52:08.340Z,0.77
2023-05-10T19:54:35.461Z,0.82
2023-05-10T19:57:02.758Z,1.00
2023-05-10T19:59:29.897Z,0.80
2023-05-10T20:01:57.001Z,0.93
2023-05-10T20:04:24.326Z,0.90
2023-05-10T20:06:51.518Z,0.93
2023-05-10T20:09:18.737Z,2.67
2023-05-10T20:11:46.058Z,1.20
2023-05-10T20:14:13.173Z,1.15
2023-05-10T20:16:40.435Z,0.95
2023-05-10T20:19:07.632Z,0.75
2023-05-10T20:21:34.853Z,1.02
2023-05-10T20:24:02.012Z,1.15
2023-05-10T20:26:29.105Z,1.00
2023-05-10T20:28:56.194Z,1.02
2023-05-10T20:31:24.798Z,0.80
2023-05-10T20:33:51.921Z,1.55
2023-05-10T20:36:19.077Z,1.30
2023-05-10T20:38:46.311Z,1.63
2023-05-10T20:41:13.385Z,3.25
2023-05-10T20:43:40.493Z,1.20
2023-05-10T20:46:08.289Z,1.40
2023-05-10T20:48:35.538Z,1.10
2023-05-10T20:51:02.796Z,1.40
2023-05-10T20:53:30.205Z,1.23
2023-05-10T20:55:57.435Z,1.25
2023-05-10T20:58:24.851Z,1.20
2023-05-10T21:00:52.007Z,1.00
2023-05-10T21:03:19.156Z,1.70
2023-05-10T21:05:46.355Z,1.17
2023-05-10T21:08:13.465Z,1.27
2023-05-10T21:10:40.811Z,1.38
2023-05-10T21:13:07.936Z,1.30
2023-05-10T21:15:35.168Z,0.90
2023-05-10T21:18:02.345Z,1.25
2023-05-10T21:20:30.113Z,1.20
2023-05-10T21:22:57.499Z,1.15
2023-05-10T21:25:25.345Z,1.20
2023-05-10T21:27:52.517Z,1.13
2023-05-10T21:30:22.557Z,1.00
2023-05-10T21:32:49.819Z,0.95
2023-05-10T21:35:17.304Z,1.33
2023-05-10T21:37:44.412Z,2.25
2023-05-10T21:40:11.939Z,1.20
2023-05-10T21:42:39.124Z,1.20
2023-05-10T21:45:07.225Z,1.55
2023-05-10T21:47:34.565Z,1.30
2023-05-10T21:50:01.778Z,1.10
2023-05-10T21:52:28.872Z,1.42
2023-05-10T21:54:55.985Z,1.08
2023-05-10T21:57:23.438Z,1.23
2023-05-10T21:59:50.531Z,1.30
2023-05-10T22:02:17.748Z,1.10
2023-05-10T22:04:45.042Z,1.27
2023-05-10T22:07:12.209Z,1.20
2023-05-10T22:09:39.337Z,1.30
2023-05-10T22:12:06.543Z,1.30
2023-05-10T22:14:33.721Z,1.15
2023-05-10T22:17:00.948Z,1.13
2023-05-10T22:19:28.139Z,1.02
2023-05-10T22:21:55.398Z,1.35
2023-05-10T22:24:22.572Z,1.13
2023-05-10T22:26:49.830Z,1.10
2023-05-10T22:29:16.920Z,1.10
2023-05-10T22:31:44.071Z,1.00
2023-05-10T22:34:11.173Z,1.10
2023-05-10T22:36:38.262Z,0.95
2023-05-10T22:39:05.358Z,0.82
2023-05-10T22:41:34.161Z,1.20
2023-05-10T22:46:29.576Z,1.20
2023-05-10T22:48:56.981Z,1.02
2023-05-10T22:51:24.099Z,1.25
2023-05-10T22:53:51.440Z,1.20
2023-05-10T22:56:18.743Z,1.10
2023-05-10T22:58:45.913Z,1.20
2023-05-10T23:01:13.055Z,1.10
2023-05-10T23:03:40.249Z,1.30
2023-05-10T23:06:07.381Z,1.05
2023-05-10T23:08:34.523Z,1.33
2023-05-10T23:11:01.844Z,1.08
2023-05-10T23:13:28.963Z,1.30
2023-05-10T23:15:56.081Z,1.17
2023-05-10T23:18:23.202Z,1.40
2023-05-10T23:20:50.396Z,0.98
2023-05-10T23:23:17.534Z,1.08
2023-05-10T23:25:44.756Z,1.23
2023-05-10T23:28:11.922Z,1.10
2023-05-10T23:30:39.049Z,1.23
2023-05-10T23:33:06.554Z,1.00
2023-05-10T23:35:33.756Z,1.33
2023-05-10T23:38:00.922Z,1.27
2023-05-10T23:40:28.137Z,1.15
2023-05-10T23:42:55.318Z,1.23
2023-05-10T23:45:22.425Z,1.08
2023-05-10T23:47:49.581Z,1.42
2023-05-10T23:50:17.163Z,1.30
2023-05-10T23:52:44.549Z,1.20
2023-05-10T23:55:11.985Z,1.30
2023-05-10T23:57:39.110Z,1.13
